Genco Leader — VRYR8 — position and weather

sailwx.info

Track history (hours):
 
Tides and Currents Weather Stations Pressure Air Temp Water Temp Dewpoint Dewpoint Depression Visibility Wind Speed Wind Dir Waves Ship Positions

Genco Leader

Last reported at 2014-Jul-17 00:16 UTC. Time now 2014-Jul-23 05:47 UTC.
Position N 26°19' W 079°27'.

Length 225 m; draft 14.2 m.

Type: Cargo ship. MMSI: 477132000.

Date/timePositionNaut miles runAvg speedWind from/ knotsBaromVisibWave heightAir tempDewpointWater temp
2014-Jul-17 00:16N 26°19' W 079°27'1815.2
2014-Jul-16 23:04N 26°01' W 079°28'1014.8
2014-Jul-16 22:23N 25°51' W 079°30'1415.1
2014-Jul-16 21:30N 25°38' W 079°31'  
2014-Jul-13 23:09N 30°01' W 090°44'5 8.9
2014-Jul-13 22:33N 30°00' W 090°50'3 0.3
2014-Jul-13 12:32N 30°03' W 090°50'0 0.0
2014-Jul-13 09:11N 30°03' W 090°50'0 0.0
2014-Jul-13 07:29N 30°03' W 090°50'0 0.0
2014-Jul-13 03:05N 30°03' W 090°50'0 0.0
2014-Jul-12 13:29N 30°03' W 090°50'0 0.0
2014-Jul-12 12:29N 30°03' W 090°50'0 0.0
2014-Jul-12 11:23N 30°03' W 090°50'0 0.0
2014-Jul-12 10:29N 30°03' W 090°50'0 0.0
2014-Jul-12 09:32N 30°03' W 090°50'0 0.0
2014-Jul-12 08:29N 30°03' W 090°50'0 0.0
2014-Jul-12 07:32N 30°03' W 090°50'0 0.0
2014-Jul-12 06:29N 30°03' W 090°50'0 0.0
2014-Jul-12 03:14N 30°03' W 090°50'0 0.0
2014-Jul-12 02:32N 30°03' W 090°50'0 0.0
2014-Jul-12 01:32N 30°03' W 090°50'16 1.3
2014-Jul-11 13:30N 30°03' W 090°32'10 8.1
2014-Jul-11 12:13N 29°56' W 090°22'10 8.3
2014-Jul-11 11:03N 29°56' W 090°11'4 6.3
2014-Jul-11 10:27N 29°55' W 090°07'  
2014-Jul-08 10:12N 25°38' W 079°32'710.1
2014-Jul-08 09:33N 25°45' W 079°31'1010.4
2014-Jul-08 08:33N 25°55' W 079°30'1010.4
2014-Jul-08 07:33N 26°05' W 079°29'1110.5
2014-Jul-08 06:33N 26°16' W 079°27'1110.7
2014-Jul-08 05:33N 26°26' W 079°25'1110.8
2014-Jul-08 04:32N 26°37' W 079°24'2510.9
2014-Jul-08 02:16N 27°02' W 079°21'  
Track history (hours):
 
Tides and Currents Weather Stations Pressure Air Temp Water Temp Dewpoint Dewpoint Depression Visibility Wind Speed Wind Dir Waves Ship Positions

Genco Leader

Last reported at 2014-Jul-17 00:16 UTC. Time now 2014-Jul-23 05:47 UTC.
Position N 26°19' W 079°27'.

Length 225 m; draft 14.2 m.

Type: Cargo ship. MMSI: 477132000.

Date/timePositionNaut miles runAvg speedWind from/ knotsBaromVisibWave heightAir tempDewpointWater temp
2014-Jul-17 00:16N 26°19' W 079°27'1815.2
2014-Jul-16 23:04N 26°01' W 079°28'1014.8
2014-Jul-16 22:23N 25°51' W 079°30'1415.1
2014-Jul-16 21:30N 25°38' W 079°31'  
2014-Jul-13 23:09N 30°01' W 090°44'5 8.9
2014-Jul-13 22:33N 30°00' W 090°50'3 0.3
2014-Jul-13 12:32N 30°03' W 090°50'0 0.0
2014-Jul-13 09:11N 30°03' W 090°50'0 0.0
2014-Jul-13 07:29N 30°03' W 090°50'0 0.0
2014-Jul-13 03:05N 30°03' W 090°50'0 0.0
2014-Jul-12 13:29N 30°03' W 090°50'0 0.0
2014-Jul-12 12:29N 30°03' W 090°50'0 0.0
2014-Jul-12 11:23N 30°03' W 090°50'0 0.0
2014-Jul-12 10:29N 30°03' W 090°50'0 0.0
2014-Jul-12 09:32N 30°03' W 090°50'0 0.0
2014-Jul-12 08:29N 30°03' W 090°50'0 0.0
2014-Jul-12 07:32N 30°03' W 090°50'0 0.0
2014-Jul-12 06:29N 30°03' W 090°50'0 0.0
2014-Jul-12 03:14N 30°03' W 090°50'0 0.0
2014-Jul-12 02:32N 30°03' W 090°50'0 0.0
2014-Jul-12 01:32N 30°03' W 090°50'16 1.3
2014-Jul-11 13:30N 30°03' W 090°32'10 8.1
2014-Jul-11 12:13N 29°56' W 090°22'10 8.3
2014-Jul-11 11:03N 29°56' W 090°11'4 6.3
2014-Jul-11 10:27N 29°55' W 090°07'  
2014-Jul-08 10:12N 25°38' W 079°32'710.1
2014-Jul-08 09:33N 25°45' W 079°31'1010.4
2014-Jul-08 08:33N 25°55' W 079°30'1010.4
2014-Jul-08 07:33N 26°05' W 079°29'1110.5
2014-Jul-08 06:33N 26°16' W 079°27'1110.7
2014-Jul-08 05:33N 26°26' W 079°25'1110.8
2014-Jul-08 04:32N 26°37' W 079°24'2510.9
2014-Jul-08 02:16N 27°02' W 079°21'  

Dump ship's entire track history